Time;durP1;ratioP1;P1;durP2;ratioP2;P2;SDS_P1;SDS_P2;PMS_P1;PMS_P2;Temp;Humidity;BMP_temperature;BMP_pressure;BME280_temperature;BME280_humidity;BME280_pressure;Samples;Min_cycle;Max_cycle;Signal;HPM_P1;HPM_P2
2022/08/19 00:02:00;;;;;;;30.48;27.75;;;19.30;99.90;;;;;;5057762;28;20122;-74
2022/08/19 00:04:32;;;;;;;28.40;25.90;;;19.20;99.90;;;;;;5054879;28;20033;-74
2022/08/19 00:06:59;;;;;;;30.65;27.88;;;19.50;99.90;;;;;;5058758;28;20055;-74
2022/08/19 00:09:27;;;;;;;30.65;27.50;;;19.40;99.90;;;;;;5059811;28;20128;-74
2022/08/19 00:11:57;;;;;;;32.67;29.30;;;19.50;99.90;;;;;;5041809;28;20256;-74
2022/08/19 00:14:26;;;;;;;29.67;27.08;;;19.50;99.90;;;;;;5056262;28;20040;-74
2022/08/19 00:16:54;;;;;;;30.02;27.20;;;19.50;99.90;;;;;;5035256;28;20647;-73
2022/08/19 00:19:22;;;;;;;31.15;28.55;;;19.60;99.90;;;;;;5055741;28;20118;-74
2022/08/19 00:21:49;;;;;;;32.38;29.17;;;19.60;99.90;;;;;;5046395;28;20471;-74
2022/08/19 00:24:16;;;;;;;32.92;29.45;;;19.50;99.90;;;;;;5053104;28;20040;-74
2022/08/19 00:26:45;;;;;;;31.10;27.98;;;19.50;99.90;;;;;;5018978;28;20114;-74
2022/08/19 00:29:17;;;;;;;31.63;28.50;;;19.50;99.90;;;;;;5056458;28;20040;-74
2022/08/19 00:31:44;;;;;;;32.80;29.63;;;19.50;99.90;;;;;;5036053;28;20180;-74
2022/08/19 00:34:12;;;;;;;31.30;28.33;;;19.50;99.90;;;;;;5041856;28;20525;-74
2022/08/19 00:36:40;;;;;;;31.38;28.73;;;19.50;99.90;;;;;;5052073;28;20052;-73
2022/08/19 00:39:08;;;;;;;33.83;30.42;;;19.40;99.90;;;;;;5054283;28;20052;-74
2022/08/19 00:41:34;;;;;;;33.25;30.13;;;19.30;99.90;;;;;;5053454;28;20704;-74
2022/08/19 00:44:13;;;;;;;31.48;28.75;;;19.30;99.90;;;;;;5037996;28;20306;-74
2022/08/19 00:46:42;;;;;;;32.45;29.45;;;19.30;99.90;;;;;;5038827;28;20109;-74
2022/08/19 00:49:20;;;;;;;31.42;28.65;;;19.30;99.90;;;;;;5040404;28;20448;-74
2022/08/19 00:51:51;;;;;;;32.00;28.95;;;19.20;99.90;;;;;;5035784;28;20040;-74
2022/08/19 00:54:18;;;;;;;32.60;29.48;;;19.20;99.90;;;;;;5050566;28;20095;-73
2022/08/19 00:56:54;;;;;;;32.60;29.20;;;19.20;99.90;;;;;;5034811;28;20041;-74
2022/08/19 00:59:22;;;;;;;32.70;29.52;;;19.10;99.90;;;;;;5041631;28;20430;-73
2022/08/19 01:02:09;;;;;;;32.17;29.10;;;19.00;99.90;;;;;;5074954;28;20064;-73
2022/08/19 01:04:35;;;;;;;32.90;29.73;;;19.00;99.90;;;;;;5058717;28;20084;-73
2022/08/19 01:07:02;;;;;;;34.38;30.80;;;19.00;99.90;;;;;;5040626;28;20512;-74
2022/08/19 01:09:30;;;;;;;33.22;30.33;;;19.00;99.90;;;;;;5037894;28;20037;-74
2022/08/19 01:11:57;;;;;;;34.75;31.55;;;19.00;99.90;;;;;;5062242;28;20333;-74
2022/08/19 01:14:24;;;;;;;36.13;32.38;;;19.10;99.90;;;;;;5035249;28;20082;-74
2022/08/19 01:16:54;;;;;;;35.80;32.17;;;19.10;99.90;;;;;;5050072;28;20563;-73
2022/08/19 01:19:28;;;;;;;35.88;32.35;;;19.10;99.90;;;;;;5045509;28;20054;-73
2022/08/19 01:22:03;;;;;;;34.87;31.87;;;19.10;99.90;;;;;;5051892;28;20040;-73
2022/08/19 01:24:41;;;;;;;35.30;31.98;;;19.10;99.90;;;;;;5035562;28;20301;-74
2022/08/19 01:27:16;;;;;;;34.92;31.58;;;19.10;99.90;;;;;;5039715;28;20044;-74
2022/08/19 01:29:44;;;;;;;34.10;30.85;;;18.90;99.90;;;;;;5054347;28;20052;-74
2022/08/19 01:32:14;;;;;;;34.45;31.17;;;18.90;99.90;;;;;;5020601;28;20474;-74
2022/08/19 01:35:01;;;;;;;33.35;30.17;;;18.90;99.90;;;;;;5051244;28;20139;-74
2022/08/19 01:37:30;;;;;;;34.33;31.10;;;18.80;99.90;;;;;;5057275;28;20033;-74
2022/08/19 01:39:57;;;;;;;32.10;28.73;;;18.90;99.90;;;;;;5054093;28;20044;-74
2022/08/19 01:42:24;;;;;;;34.10;30.45;;;18.90;99.90;;;;;;5055746;28;20074;-73
2022/08/19 01:44:56;;;;;;;36.05;31.35;;;18.90;99.90;;;;;;5035145;28;20036;-74
2022/08/19 01:47:24;;;;;;;33.55;30.10;;;18.90;99.90;;;;;;5054391;28;20132;-74
2022/08/19 01:49:50;;;;;;;34.50;30.75;;;18.70;99.90;;;;;;5033358;28;20391;-74
2022/08/19 01:52:17;;;;;;;33.95;30.73;;;18.70;99.90;;;;;;5053468;28;20048;-72
2022/08/19 01:54:44;;;;;;;33.22;29.90;;;18.70;99.90;;;;;;5053069;28;20951;-73
2022/08/19 01:57:13;;;;;;;34.20;30.90;;;18.50;99.90;;;;;;5054251;28;20048;-74
2022/08/19 01:59:42;;;;;;;36.50;32.38;;;18.50;99.90;;;;;;5052860;28;20040;-73
2022/08/19 02:02:10;;;;;;;37.03;33.05;;;18.50;99.90;;;;;;5036601;28;20319;-74
2022/08/19 02:04:40;;;;;;;36.00;32.17;;;18.40;99.90;;;;;;5055249;28;20461;-73
2022/08/19 02:07:07;;;;;;;33.88;30.77;;;18.20;99.90;;;;;;5057855;28;20044;-73
2022/08/19 02:09:35;;;;;;;33.33;29.95;;;18.10;99.90;;;;;;5035051;28;20055;-73
2022/08/19 02:12:03;;;;;;;34.15;30.60;;;18.10;99.90;;;;;;5057079;28;20047;-73
2022/08/19 02:14:29;;;;;;;36.08;32.25;;;18.00;99.90;;;;;;5036126;28;20076;-73
2022/08/19 02:16:56;;;;;;;39.15;31.58;;;17.80;99.90;;;;;;5027286;28;20117;-73
2022/08/19 02:19:23;;;;;;;33.80;30.38;;;17.70;99.90;;;;;;5057195;28;20064;-73
2022/08/19 02:21:50;;;;;;;35.20;31.27;;;17.70;99.90;;;;;;5036456;28;20037;-73
2022/08/19 02:24:17;;;;;;;37.08;31.65;;;17.70;99.90;;;;;;5021810;28;20132;-71
2022/08/19 02:26:44;;;;;;;39.47;34.55;;;17.70;99.90;;;;;;5048862;28;20571;-72
2022/08/19 02:29:10;;;;;;;38.35;33.95;;;17.70;99.90;;;;;;5043267;28;20040;-73
2022/08/19 02:31:37;;;;;;;37.95;33.45;;;17.60;99.90;;;;;;5052062;28;20079;-72
2022/08/19 02:34:04;;;;;;;36.13;31.80;;;17.50;99.90;;;;;;5021106;28;20052;-73
2022/08/19 02:36:31;;;;;;;37.67;32.58;;;17.40;99.90;;;;;;5058545;28;20306;-75
2022/08/19 02:38:58;;;;;;;36.83;31.17;;;17.40;99.90;;;;;;5053309;28;20192;-75
2022/08/19 02:41:28;;;;;;;35.33;31.73;;;17.40;99.90;;;;;;5055736;28;20140;-72
2022/08/19 02:43:57;;;;;;;35.60;31.40;;;17.30;99.90;;;;;;5055590;28;20063;-75
2022/08/19 02:46:46;;;;;;;38.22;31.30;;;17.30;99.90;;;;;;5037715;28;20049;-73
2022/08/19 02:52:05;;;;;;;35.38;30.70;;;17.30;99.90;;;;;;5065822;28;20563;-76
2022/08/19 02:54:32;;;;;;;39.83;31.23;;;17.20;99.90;;;;;;5073101;28;20055;-76
2022/08/19 02:56:58;;;;;;;35.35;31.40;;;17.10;99.90;;;;;;5062333;28;20052;-77
2022/08/19 02:59:26;;;;;;;35.60;30.67;;;17.10;99.90;;;;;;5088465;28;20062;-77
2022/08/19 03:01:53;;;;;;;33.05;29.55;;;17.20;99.90;;;;;;5055886;28;20536;-77
2022/08/19 03:04:20;;;;;;;36.17;29.30;;;17.20;99.90;;;;;;5045256;28;20091;-77
2022/08/19 03:06:47;;;;;;;34.72;30.90;;;17.20;99.90;;;;;;5070893;28;20245;-77
2022/08/19 03:09:14;;;;;;;34.58;30.30;;;17.10;99.90;;;;;;5061595;28;20071;-77
2022/08/19 03:11:41;;;;;;;33.70;30.10;;;17.10;99.90;;;;;;5075600;28;20627;-77
2022/08/19 03:14:09;;;;;;;37.20;30.95;;;17.10;99.90;;;;;;5074202;28;20067;-77
2022/08/19 03:16:47;;;;;;;38.95;32.10;;;17.10;99.90;;;;;;5066737;28;20497;-77
2022/08/19 03:19:16;;;;;;;33.78;30.13;;;17.10;99.90;;;;;;5069681;28;20044;-77
2022/08/19 03:21:44;;;;;;;39.53;32.15;;;17.10;99.90;;;;;;5063732;28;20531;-77
2022/08/19 03:24:11;;;;;;;44.47;33.53;;;17.00;99.90;;;;;;5045272;28;20039;-77
2022/08/19 03:26:41;;;;;;;41.53;33.05;;;16.80;99.90;;;;;;5050172;28;20095;-77
2022/08/19 03:29:10;;;;;;;42.45;33.03;;;16.80;99.90;;;;;;5045993;28;20052;-78
2022/08/19 03:31:40;;;;;;;40.63;33.63;;;16.60;99.90;;;;;;5057935;28;20038;-78
2022/08/19 03:34:22;;;;;;;45.88;33.63;;;16.60;99.90;;;;;;5047299;28;20058;-79
2022/08/19 03:36:48;;;;;;;44.28;33.88;;;16.60;99.90;;;;;;5044860;28;20464;-78
2022/08/19 03:39:16;;;;;;;44.13;34.85;;;16.50;99.90;;;;;;5046715;28;20063;-77
2022/08/19 03:41:45;;;;;;;44.72;34.05;;;16.60;99.90;;;;;;5049625;28;20480;-77
2022/08/19 03:44:17;;;;;;;47.72;35.45;;;16.50;99.90;;;;;;5051333;28;20044;-78
2022/08/19 03:46:47;;;;;;;56.35;37.80;;;16.40;99.90;;;;;;5063223;28;20064;-77
2022/08/19 03:49:15;;;;;;;52.35;36.95;;;16.40;99.90;;;;;;5051544;28;20297;-77
2022/08/19 03:51:46;;;;;;;58.00;38.78;;;16.30;99.90;;;;;;5029073;28;20054;-77
2022/08/19 03:54:14;;;;;;;52.72;38.85;;;16.30;99.90;;;;;;5024293;28;20048;-77
2022/08/19 03:56:43;;;;;;;51.13;35.97;;;16.40;99.90;;;;;;5042867;28;20048;-78
2022/08/19 03:59:13;;;;;;;56.67;38.60;;;16.30;99.90;;;;;;5046179;28;20052;-79
2022/08/19 04:01:40;;;;;;;57.55;39.28;;;16.30;99.90;;;;;;5062231;28;20045;-78
2022/08/19 04:04:07;;;;;;;56.28;39.63;;;16.30;99.90;;;;;;5045965;28;20083;-76
2022/08/19 04:06:38;;;;;;;53.00;37.47;;;16.20;99.90;;;;;;5045305;28;20435;-76
2022/08/19 04:09:09;;;;;;;55.15;38.70;;;16.20;99.90;;;;;;5056879;28;20445;-77
2022/08/19 04:11:48;;;;;;;66.20;42.78;;;16.10;99.90;;;;;;5044665;28;20045;-77
2022/08/19 04:14:19;;;;;;;74.80;44.72;;;16.10;99.90;;;;;;5032729;28;20136;-76
2022/08/19 04:16:48;;;;;;;75.00;42.75;;;16.10;99.90;;;;;;5064011;28;20044;-76
2022/08/19 04:19:16;;;;;;;77.20;43.25;;;16.10;99.90;;;;;;5032735;28;20045;-76
2022/08/19 04:21:46;;;;;;;73.88;42.80;;;16.10;99.90;;;;;;5070116;28;20040;-76
2022/08/19 04:24:14;;;;;;;68.40;43.63;;;16.10;99.90;;;;;;5042967;28;20112;-76
2022/08/19 04:26:41;;;;;;;77.88;44.83;;;16.10;99.90;;;;;;5045554;28;20041;-76
2022/08/19 04:29:14;;;;;;;82.18;44.20;;;16.10;99.90;;;;;;5037712;28;20053;-76
2022/08/19 04:31:44;;;;;;;97.65;47.47;;;16.10;99.90;;;;;;5053188;28;20102;-76
2022/08/19 04:34:15;;;;;;;79.97;44.38;;;16.10;99.90;;;;;;5044407;28;20057;-79
2022/08/19 04:36:44;;;;;;;84.72;48.75;;;16.20;99.90;;;;;;5027083;28;20057;-76
2022/08/19 04:39:15;;;;;;;93.93;49.65;;;16.20;99.90;;;;;;5062848;28;20052;-76
2022/08/19 04:44:33;;;;;;;94.75;49.67;;;16.20;99.90;;;;;;5075421;28;20044;-77
2022/08/19 04:47:03;;;;;;;87.00;47.08;;;16.20;99.90;;;;;;5056986;28;20532;-76
2022/08/19 04:49:37;;;;;;;90.97;50.22;;;16.30;99.90;;;;;;5048591;28;20184;-79
2022/08/19 04:52:04;;;;;;;108.80;52.85;;;16.40;99.90;;;;;;5066232;28;20048;-79
2022/08/19 04:54:30;;;;;;;98.60;52.28;;;16.50;99.90;;;;;;5046867;28;20078;-78
2022/08/19 04:57:08;;;;;;;133.77;59.83;;;16.50;99.90;;;;;;5048800;28;20108;-79
2022/08/19 04:59:36;;;;;;;119.13;55.78;;;16.60;99.90;;;;;;5054343;28;20428;-79
2022/08/19 05:02:03;;;;;;;82.72;48.55;;;16.50;99.90;;;;;;5050637;28;20043;-79
2022/08/19 05:04:31;;;;;;;81.45;46.55;;;16.60;99.90;;;;;;5047239;28;20040;-79
2022/08/19 05:07:00;;;;;;;85.03;49.80;;;16.60;99.90;;;;;;5043678;28;20140;-80
2022/08/19 05:09:58;;;;;;;81.93;46.70;;;16.60;99.90;;;;;;5071922;28;20095;-78
2022/08/19 05:12:37;;;;;;;84.40;48.55;;;16.70;99.90;;;;;;5069264;28;20044;-81
2022/08/19 05:15:05;;;;;;;84.88;48.97;;;16.70;99.90;;;;;;5055134;28;20146;-79
2022/08/19 05:17:32;;;;;;;84.28;46.35;;;16.70;99.90;;;;;;5080158;28;20278;-77
2022/08/19 05:22:52;;;;;;;82.25;46.97;;;16.80;99.90;;;;;;5083598;28;20109;-80
2022/08/19 05:25:20;;;;;;;78.57;45.88;;;16.70;99.90;;;;;;5071033;28;20143;-80
2022/08/19 05:27:47;;;;;;;78.35;46.13;;;16.80;99.90;;;;;;5072434;28;20028;-79
2022/08/19 05:30:15;;;;;;;96.72;49.90;;;16.90;99.90;;;;;;5055165;28;20044;-78
2022/08/19 05:32:43;;;;;;;82.78;47.17;;;16.90;99.90;;;;;;5065655;28;20043;-79
2022/08/19 05:35:11;;;;;;;81.75;47.58;;;17.00;99.90;;;;;;5063234;22;20197;-74
2022/08/19 05:37:39;;;;;;;73.88;45.10;;;17.00;99.90;;;;;;5037205;28;20570;-75
2022/08/19 05:40:08;;;;;;;76.30;43.78;;;17.10;99.90;;;;;;5031470;28;20101;-74
2022/08/19 05:42:35;;;;;;;74.57;46.58;;;17.10;99.90;;;;;;5024441;28;20072;-74
2022/08/19 05:45:02;;;;;;;77.57;45.15;;;17.20;99.90;;;;;;5045477;28;20052;-75
2022/08/19 05:47:29;;;;;;;78.68;47.03;;;17.10;99.90;;;;;;5020971;28;20515;-74
2022/08/19 05:49:55;;;;;;;80.70;46.95;;;17.10;99.90;;;;;;5045894;28;20329;-73
2022/08/19 05:52:22;;;;;;;80.63;46.85;;;17.20;99.90;;;;;;5025298;28;20040;-74
2022/08/19 05:54:54;;;;;;;80.82;45.65;;;17.20;99.90;;;;;;5020070;28;20033;-73
2022/08/19 05:57:23;;;;;;;82.22;46.10;;;17.20;99.90;;;;;;5039525;28;20509;-74
2022/08/19 05:59:51;;;;;;;73.93;44.22;;;17.20;99.90;;;;;;5026725;28;20130;-74
2022/08/19 06:02:25;;;;;;;80.28;44.92;;;17.30;99.90;;;;;;5027414;28;20040;-73
2022/08/19 06:04:52;;;;;;;77.78;44.22;;;17.30;99.90;;;;;;5021701;28;20409;-74
2022/08/19 06:07:19;;;;;;;70.90;43.10;;;17.30;99.90;;;;;;5023846;28;20037;-73
2022/08/19 06:09:46;;;;;;;69.28;44.08;;;17.40;99.90;;;;;;5042872;28;20052;-74
2022/08/19 06:12:31;;;;;;;70.88;42.25;;;17.40;99.90;;;;;;5008651;28;20250;-74
2022/08/19 06:14:59;;;;;;;73.80;44.00;;;17.40;99.90;;;;;;5028423;28;20578;-74
2022/08/19 06:17:31;;;;;;;71.35;41.60;;;17.40;99.90;;;;;;5009447;28;20117;-75
2022/08/19 06:19:58;;;;;;;67.45;41.70;;;17.40;99.90;;;;;;5023925;28;20060;-74
2022/08/19 06:22:27;;;;;;;61.90;40.33;;;17.40;99.90;;;;;;5040436;28;20140;-74
2022/08/19 06:24:55;;;;;;;69.95;42.55;;;17.50;99.90;;;;;;5026143;28;20041;-72
2022/08/19 06:27:22;;;;;;;67.22;43.67;;;17.50;99.90;;;;;;5020252;28;20029;-74
2022/08/19 06:29:49;;;;;;;67.72;42.92;;;17.60;99.90;;;;;;5025269;28;20036;-74
2022/08/19 06:32:18;;;;;;;65.90;41.00;;;17.70;99.90;;;;;;5029481;28;20040;-73
2022/08/19 06:34:45;;;;;;;69.90;42.28;;;17.70;99.90;;;;;;5005880;28;20742;-75
2022/08/19 06:37:12;;;;;;;65.00;41.60;;;17.70;99.90;;;;;;5024378;28;20142;-73
2022/08/19 06:39:42;;;;;;;74.63;44.08;;;17.80;99.90;;;;;;5023980;28;20053;-74
2022/08/19 06:42:11;;;;;;;82.38;48.28;;;17.80;99.90;;;;;;5004823;28;20060;-72
2022/08/19 06:44:40;;;;;;;86.97;50.50;;;17.80;99.90;;;;;;5022085;28;20045;-74
2022/08/19 06:47:13;;;;;;;78.50;48.42;;;17.90;99.90;;;;;;5010750;28;20153;-75
2022/08/19 06:49:53;;;;;;;78.97;46.33;;;17.90;99.90;;;;;;5043424;28;20044;-72
2022/08/19 06:52:27;;;;;;;82.38;47.83;;;17.90;99.90;;;;;;5016564;28;20062;-74
2022/08/19 06:54:55;;;;;;;76.68;49.92;;;18.10;99.90;;;;;;5013510;28;20547;-74
2022/08/19 06:57:26;;;;;;;77.78;50.67;;;18.10;99.90;;;;;;5018106;28;20041;-75
2022/08/19 06:59:54;;;;;;;78.82;50.40;;;18.20;99.90;;;;;;5027215;28;20103;-74
2022/08/19 07:02:21;;;;;;;72.63;49.70;;;18.30;99.90;;;;;;5022914;28;20041;-74
2022/08/19 07:04:48;;;;;;;74.47;49.63;;;18.30;99.90;;;;;;5041671;28;20041;-73
2022/08/19 07:07:20;;;;;;;63.25;44.95;;;18.40;99.90;;;;;;5021953;28;20146;-74
2022/08/19 07:09:49;;;;;;;63.22;45.50;;;18.50;99.90;;;;;;5028927;28;20639;-73
2022/08/19 07:12:28;;;;;;;57.78;44.53;;;18.80;99.90;;;;;;5038887;28;20041;-73
2022/08/19 07:14:57;;;;;;;48.25;43.00;;;18.90;99.90;;;;;;5043336;28;20382;-73
2022/08/19 07:17:24;;;;;;;48.63;41.63;;;19.00;99.90;;;;;;5020560;28;20040;-72
2022/08/19 07:19:51;;;;;;;48.92;42.97;;;19.20;99.90;;;;;;5039925;28;20110;-73
2022/08/19 07:22:22;;;;;;;51.67;41.92;;;19.50;99.90;;;;;;5040644;28;20052;-72
2022/08/19 07:24:52;;;;;;;44.10;39.67;;;19.80;99.90;;;;;;5019628;28;20069;-73
2022/08/19 07:27:19;;;;;;;46.28;41.50;;;20.00;99.90;;;;;;5036113;28;20057;-73
2022/08/19 07:29:54;;;;;;;43.35;39.20;;;20.30;99.90;;;;;;5039408;28;20106;-74
2022/08/19 07:32:27;;;;;;;41.25;37.35;;;20.80;99.90;;;;;;5021476;28;20076;-73
2022/08/19 07:34:55;;;;;;;43.88;39.17;;;21.20;99.90;;;;;;5019386;28;20335;-73
2022/08/19 07:37:23;;;;;;;38.10;34.58;;;21.70;99.90;;;;;;5014864;28;20067;-72
2022/08/19 07:39:55;;;;;;;39.65;35.63;;;21.80;99.90;;;;;;5015289;28;20437;-74
2022/08/19 07:42:22;;;;;;;34.90;32.08;;;21.50;99.90;;;;;;5028723;28;20071;-76
2022/08/19 07:44:48;;;;;;;34.92;31.90;;;21.30;99.90;;;;;;5030859;28;20044;-72
2022/08/19 07:47:17;;;;;;;36.58;33.38;;;21.20;99.90;;;;;;5014839;28;20125;-72
2022/08/19 07:50:07;;;;;;;35.40;31.98;;;21.30;99.90;;;;;;5031018;28;20037;-74
2022/08/19 07:52:38;;;;;;;34.35;31.45;;;21.40;99.90;;;;;;5027830;28;20602;-73
2022/08/19 07:55:07;;;;;;;35.53;32.83;;;21.70;99.90;;;;;;4996244;28;20130;-74
2022/08/19 07:57:54;;;;;;;33.50;31.00;;;21.70;99.90;;;;;;5036225;28;20048;-74
2022/08/19 08:00:21;;;;;;;35.53;32.47;;;21.80;99.90;;;;;;5012330;28;20223;-74
2022/08/19 08:02:51;;;;;;;35.85;32.85;;;22.00;99.90;;;;;;5016434;28;20048;-74
2022/08/19 08:10:59;;;;;;;35.60;32.33;;;22.30;99.90;;;;;;5022021;28;20044;-73
2022/08/19 08:13:27;;;;;;;35.42;32.67;;;22.40;99.90;;;;;;5024901;28;20025;-74
2022/08/19 08:15:55;;;;;;;36.30;33.17;;;22.30;99.90;;;;;;5016872;28;20050;-71
2022/08/19 08:18:23;;;;;;;36.45;33.78;;;22.30;99.90;;;;;;5028215;28;20052;-72
2022/08/19 08:20:54;;;;;;;37.05;34.10;;;22.30;99.90;;;;;;5012509;28;20178;-73
2022/08/19 08:23:25;;;;;;;35.40;32.67;;;22.00;99.90;;;;;;5010563;28;20451;-74
2022/08/19 08:25:55;;;;;;;35.80;32.90;;;22.20;99.90;;;;;;5030282;28;20128;-72
2022/08/19 08:28:24;;;;;;;37.17;34.10;;;22.50;99.90;;;;;;5009144;28;20056;-72
2022/08/19 08:30:52;;;;;;;36.97;34.22;;;22.50;99.90;;;;;;5011947;28;20041;-73
2022/08/19 08:33:25;;;;;;;38.97;35.67;;;22.40;99.90;;;;;;5010877;28;20045;-73
2022/08/19 08:36:04;;;;;;;39.72;36.60;;;22.40;99.90;;;;;;5013265;28;20059;-73
2022/08/19 08:38:32;;;;;;;41.28;37.50;;;22.80;99.90;;;;;;5024947;28;20189;-74
2022/08/19 08:41:20;;;;;;;41.55;37.95;;;22.90;99.90;;;;;;5014792;28;20144;-74
2022/08/19 08:43:51;;;;;;;37.67;34.83;;;23.10;99.90;;;;;;5011909;28;20052;-72
2022/08/19 08:46:37;;;;;;;39.00;35.97;;;23.00;99.90;;;;;;5010141;28;20066;-75
2022/08/19 08:49:13;;;;;;;39.63;36.60;;;23.00;99.90;;;;;;5044844;22;20056;-73
2022/08/19 08:51:47;;;;;;;41.03;37.50;;;23.20;99.90;;;;;;5059404;28;20036;-73
2022/08/19 08:54:25;;;;;;;41.13;37.78;;;23.30;99.90;;;;;;5053487;28;20136;-72
2022/08/19 08:56:53;;;;;;;39.17;36.13;;;23.10;99.90;;;;;;5066128;28;20036;-73
2022/08/19 08:59:34;;;;;;;39.05;36.25;;;23.20;99.90;;;;;;5062926;28;20295;-73
2022/08/19 09:02:01;;;;;;;38.50;35.55;;;23.20;99.90;;;;;;5061797;28;20105;-74
2022/08/19 09:04:28;;;;;;;37.90;35.20;;;23.40;99.90;;;;;;5062806;28;20629;-73
2022/08/19 09:07:12;;;;;;;36.40;33.67;;;23.50;99.90;;;;;;5071684;28;20035;-73
2022/08/19 09:10:16;;;;;;;38.38;35.40;;;23.50;99.90;;;;;;5060246;28;20051;-73
2022/08/19 09:13:14;;;;;;;35.88;33.03;;;23.40;99.90;;;;;;5041035;28;20580;-72
2022/08/19 09:15:49;;;;;;;38.47;35.28;;;23.40;99.90;;;;;;5062396;28;20102;-72
2022/08/19 09:18:16;;;;;;;;;;;23.30;99.90;;;;;;5069190;28;20452;-72
2022/08/19 09:20:47;;;;;;;37.25;34.28;;;23.50;99.90;;;;;;5043471;28;19927;-72
2022/08/19 09:23:14;;;;;;;37.00;34.30;;;23.60;99.90;;;;;;5042980;28;20048;-73
2022/08/19 09:25:40;;;;;;;37.10;34.38;;;23.90;99.90;;;;;;5062480;28;20041;-74
2022/08/19 09:28:07;;;;;;;35.78;32.97;;;24.20;99.90;;;;;;5068873;28;20142;-73
2022/08/19 09:30:48;;;;;;;33.33;31.02;;;24.50;99.90;;;;;;5044406;28;20769;-73
2022/08/19 09:33:19;;;;;;;34.05;31.65;;;24.60;99.90;;;;;;5066952;28;20051;-73
2022/08/19 09:35:46;;;;;;;34.35;31.92;;;24.60;99.90;;;;;;5046076;28;20052;-73
2022/08/19 09:38:19;;;;;;;32.70;30.40;;;24.30;99.90;;;;;;5048660;28;20670;-72
2022/08/19 09:40:46;;;;;;;31.80;29.60;;;24.40;99.90;;;;;;5067537;28;20128;-73
2022/08/19 09:43:13;;;;;;;32.05;29.95;;;24.20;99.90;;;;;;5043077;28;20048;-73
2022/08/19 09:45:40;;;;;;;31.02;28.90;;;24.20;99.90;;;;;;5062353;28;20122;-74
2022/08/19 09:48:07;;;;;;;30.75;28.50;;;24.20;99.90;;;;;;5062017;28;20052;-74
2022/08/19 09:50:38;;;;;;;30.65;28.65;;;24.20;99.90;;;;;;5037838;28;20820;-74
2022/08/19 09:53:18;;;;;;;30.40;28.33;;;24.10;99.90;;;;;;5054657;28;20052;-73
2022/08/19 09:55:45;;;;;;;29.48;27.58;;;23.90;99.90;;;;;;5054228;28;20056;-74
2022/08/19 09:58:11;;;;;;;28.60;26.85;;;24.30;99.90;;;;;;5062225;28;20106;-74
2022/08/19 10:00:38;;;;;;;29.73;27.77;;;24.40;99.90;;;;;;5055810;28;20114;-72
2022/08/19 10:03:05;;;;;;;27.38;25.70;;;24.90;99.90;;;;;;5053006;28;20721;-74
2022/08/19 10:05:49;;;;;;;31.13;28.83;;;25.30;99.90;;;;;;5040597;28;20040;-71
2022/08/19 10:08:35;;;;;;;28.92;26.92;;;25.20;99.90;;;;;;5033910;28;20056;-72
2022/08/19 10:11:03;;;;;;;29.83;27.88;;;25.60;99.90;;;;;;5059158;28;20051;-72
2022/08/19 10:13:50;;;;;;;29.45;27.52;;;25.50;99.90;;;;;;5048497;28;20047;-72
2022/08/19 10:16:21;;;;;;;29.10;27.00;;;25.40;99.90;;;;;;5056624;28;20206;-70
2022/08/19 10:18:52;;;;;;;28.90;26.90;;;24.90;99.90;;;;;;5034100;28;20124;-72
2022/08/19 10:21:28;;;;;;;30.00;28.13;;;24.80;99.90;;;;;;5032531;28;20045;-74
2022/08/19 10:24:03;;;;;;;29.08;27.00;;;25.00;99.90;;;;;;5056767;28;20075;-74
2022/08/19 10:26:34;;;;;;;28.45;26.58;;;25.40;99.90;;;;;;5033633;28;20138;-74
2022/08/19 10:29:04;;;;;;;29.98;28.05;;;25.40;99.90;;;;;;5045969;28;20665;-74
2022/08/19 10:31:33;;;;;;;27.63;26.05;;;25.70;99.90;;;;;;5048422;28;20497;-72
2022/08/19 10:34:20;;;;;;;28.13;26.45;;;25.50;99.90;;;;;;5068561;28;20052;-72
2022/08/19 10:36:54;;;;;;;27.52;25.70;;;25.60;99.90;;;;;;5073749;28;20075;-72
2022/08/19 10:39:29;;;;;;;28.88;27.10;;;25.50;99.90;;;;;;5060574;28;20052;-74
2022/08/19 10:41:57;;;;;;;27.55;25.85;;;25.30;99.90;;;;;;5045915;28;20040;-73
2022/08/19 10:44:24;;;;;;;29.77;27.65;;;25.20;99.90;;;;;;5041860;28;20083;-75
2022/08/19 10:46:58;;;;;;;27.70;26.00;;;25.00;99.90;;;;;;5046319;28;20604;-73
2022/08/19 10:49:25;;;;;;;28.23;26.42;;;25.30;99.90;;;;;;5043483;28;20467;-73
2022/08/19 10:57:35;;;;;;;27.75;26.15;;;25.90;99.90;;;;;;5068646;28;20050;-74
2022/08/19 11:00:23;;;;;;;26.90;25.30;;;25.80;99.90;;;;;;5069491;28;20044;-74
2022/08/19 11:02:51;;;;;;;27.02;25.42;;;26.10;99.90;;;;;;5049557;28;20075;-75
2022/08/19 11:05:19;;;;;;;27.73;26.23;;;26.40;99.90;;;;;;5044157;28;20093;-74
2022/08/19 11:07:50;;;;;;;28.90;26.80;;;26.70;99.90;;;;;;5053626;28;20036;-75
2022/08/19 11:10:18;;;;;;;26.85;25.20;;;26.80;99.90;;;;;;5036978;28;20651;-74
2022/08/19 11:12:48;;;;;;;26.92;25.33;;;27.10;99.90;;;;;;5071277;28;20040;-75
2022/08/19 11:15:15;;;;;;;28.10;26.50;;;27.40;99.90;;;;;;5058554;28;20044;-73
2022/08/19 11:17:43;;;;;;;29.88;28.08;;;27.50;99.90;;;;;;5029046;28;20047;-72
2022/08/19 11:20:12;;;;;;;29.15;27.45;;;27.10;99.90;;;;;;5073410;28;20307;-74
2022/08/19 11:22:40;;;;;;;29.17;27.30;;;26.70;99.90;;;;;;5050218;28;20040;-72
2022/08/19 11:25:10;;;;;;;29.67;27.63;;;26.80;99.90;;;;;;5065108;28;20048;-73
2022/08/19 11:27:42;;;;;;;29.98;28.23;;;27.00;99.90;;;;;;5037402;28;20170;-72
2022/08/19 11:30:11;;;;;;;29.85;27.77;;;26.90;99.90;;;;;;5073111;28;20040;-74
2022/08/19 11:32:40;;;;;;;29.38;27.65;;;27.20;99.90;;;;;;5045860;28;20598;-74
2022/08/19 11:35:13;;;;;;;29.23;27.53;;;27.40;99.90;;;;;;5054868;28;20044;-75
2022/08/19 11:37:40;;;;;;;30.52;28.15;;;27.70;99.90;;;;;;5068929;28;20377;-73
2022/08/19 11:40:07;;;;;;;27.98;26.15;;;27.80;99.90;;;;;;5074134;28;20051;-73
2022/08/19 11:45:20;;;;;;;28.65;26.98;;;26.70;99.90;;;;;;5068969;28;20044;-74
2022/08/19 11:47:47;;;;;;;31.17;29.30;;;26.40;99.90;;;;;;5048640;28;20044;-73
2022/08/19 11:50:15;;;;;;;32.30;30.05;;;26.10;99.90;;;;;;5059468;28;20047;-73
2022/08/19 11:52:43;;;;;;;28.52;26.95;;;25.80;99.90;;;;;;5053141;28;20051;-74
2022/08/19 11:55:11;;;;;;;29.92;28.13;;;26.00;99.90;;;;;;5055099;28;20055;-73
2022/08/19 11:57:38;;;;;;;29.20;27.45;;;26.30;99.90;;;;;;5064754;28;20151;-74
2022/08/19 12:00:07;;;;;;;29.40;27.52;;;26.90;99.90;;;;;;5055986;28;20056;-74
2022/08/19 12:02:33;;;;;;;29.80;27.85;;;27.20;99.90;;;;;;5067709;28;20067;-73
2022/08/19 12:05:02;;;;;;;28.90;27.30;;;27.30;99.90;;;;;;5030524;28;20049;-74
2022/08/19 12:07:32;;;;;;;30.52;28.40;;;27.30;99.90;;;;;;5034542;28;20045;-74
2022/08/19 12:10:00;;;;;;;29.73;27.80;;;27.60;99.90;;;;;;5069829;28;20094;-73
2022/08/19 12:12:27;;;;;;;31.10;29.15;;;27.40;99.90;;;;;;5058514;28;20204;-73
2022/08/19 12:14:57;;;;;;;30.05;28.05;;;27.20;99.90;;;;;;5072033;28;20048;-73
2022/08/19 12:17:26;;;;;;;29.50;27.48;;;27.40;99.90;;;;;;5044463;28;20610;-74
2022/08/19 12:19:54;;;;;;;29.95;28.13;;;27.80;99.90;;;;;;5060793;28;20079;-72
2022/08/19 12:22:21;;;;;;;29.70;27.90;;;28.10;99.90;;;;;;5037927;28;20459;-73
2022/08/19 12:24:50;;;;;;;30.27;28.33;;;28.10;99.90;;;;;;5070307;28;20124;-74
2022/08/19 12:27:17;;;;;;;31.58;29.48;;;28.20;99.90;;;;;;5038821;28;20045;-72
2022/08/19 12:30:06;;;;;;;31.80;29.90;;;28.20;99.90;;;;;;5062168;28;20071;-73
2022/08/19 12:32:33;;;;;;;31.02;29.02;;;27.60;99.90;;;;;;5036594;28;20083;-72
2022/08/19 12:35:00;;;;;;;30.40;28.65;;;27.60;99.90;;;;;;5042931;28;20667;-73
2022/08/19 12:37:27;;;;;;;30.55;28.75;;;27.50;99.90;;;;;;5065097;28;20143;-72
2022/08/19 12:39:54;;;;;;;30.98;29.15;;;27.60;99.90;;;;;;5072932;28;20047;-75
2022/08/19 12:42:22;;;;;;;31.35;29.15;;;27.60;99.90;;;;;;5069495;28;20044;-74
2022/08/19 12:44:49;;;;;;;30.70;28.80;;;27.90;99.90;;;;;;5071457;28;20071;-74
2022/08/19 12:47:16;;;;;;;30.65;28.75;;;28.00;99.90;;;;;;5064466;28;20044;-75
2022/08/19 12:49:46;;;;;;;32.13;29.83;;;28.30;99.90;;;;;;5070277;28;20063;-73
2022/08/19 12:52:24;;;;;;;30.65;28.85;;;28.50;99.90;;;;;;5069047;28;20658;-74
2022/08/19 12:54:53;;;;;;;30.98;29.17;;;28.70;99.90;;;;;;5072371;28;20055;-73
2022/08/19 12:57:23;;;;;;;31.45;29.45;;;28.80;99.90;;;;;;5061107;28;20135;-72
2022/08/19 13:00:14;;;;;;;31.08;29.23;;;28.80;99.90;;;;;;5066026;28;20071;-73
2022/08/19 13:02:45;;;;;;;30.98;28.95;;;29.00;99.90;;;;;;5059624;28;20536;-74
2022/08/19 13:05:19;;;;;;;31.35;29.33;;;28.70;99.90;;;;;;5041215;28;20674;-73
2022/08/19 13:07:47;;;;;;;30.70;28.90;;;28.70;99.90;;;;;;5050833;28;20452;-74